createdAt,value
2019-05-07T00:01:09.502Z,22.75
2019-05-07T00:03:36.969Z,22.80
2019-05-07T00:06:04.323Z,22.80
2019-05-07T00:08:32.381Z,22.79
2019-05-07T00:11:02.126Z,22.80
2019-05-07T00:13:29.644Z,22.80
2019-05-07T00:15:57.330Z,22.73
2019-05-07T00:18:24.626Z,22.79
2019-05-07T00:20:53.343Z,22.82
2019-05-07T00:23:23.382Z,22.79
2019-05-07T00:25:53.014Z,22.77
2019-05-07T00:28:22.985Z,22.77
2019-05-07T00:30:52.092Z,22.80
2019-05-07T00:33:20.132Z,22.77
2019-05-07T00:35:57.616Z,22.73
2019-05-07T00:38:27.839Z,22.74
2019-05-07T00:41:05.974Z,22.74
2019-05-07T00:43:37.175Z,22.71
2019-05-07T00:46:08.096Z,22.67
2019-05-07T00:48:35.781Z,22.67
2019-05-07T00:51:42.565Z,22.64
2019-05-07T00:54:12.066Z,22.60
2019-05-07T00:56:38.988Z,22.63
2019-05-07T00:59:06.505Z,22.61
2019-05-07T01:01:34.953Z,22.58
2019-05-07T01:04:02.801Z,22.63
2019-05-07T01:06:30.074Z,22.65
2019-05-07T01:08:58.156Z,22.49
2019-05-07T01:11:27.241Z,22.49
2019-05-07T01:13:57.154Z,22.58
2019-05-07T01:16:26.000Z,22.57
2019-05-07T01:18:54.743Z,22.57
2019-05-07T01:21:24.515Z,22.54
2019-05-07T01:23:52.632Z,22.50
2019-05-07T01:26:21.915Z,22.50
2019-05-07T01:28:59.190Z,22.48
2019-05-07T01:31:38.772Z,22.49
2019-05-07T01:34:26.855Z,22.51
2019-05-07T01:36:55.047Z,22.53
2019-05-07T01:39:23.797Z,22.53
2019-05-07T01:41:52.916Z,22.53
2019-05-07T01:44:22.138Z,22.51
2019-05-07T01:46:49.803Z,22.50
2019-05-07T01:49:16.896Z,22.50
2019-05-07T01:51:44.472Z,22.49
2019-05-07T01:54:12.936Z,22.42
2019-05-07T01:56:59.348Z,22.44
2019-05-07T01:59:27.666Z,22.45
2019-05-07T02:01:57.965Z,22.39
2019-05-07T02:04:32.666Z,22.43
2019-05-07T02:07:23.464Z,22.39
2019-05-07T02:10:02.853Z,22.40
2019-05-07T02:12:32.948Z,22.40
2019-05-07T02:15:02.688Z,22.38
2019-05-07T02:17:32.231Z,22.33
2019-05-07T02:20:02.643Z,22.30
2019-05-07T02:24:03.401Z,22.41
2019-05-07T02:26:32.147Z,22.33
2019-05-07T02:28:59.478Z,22.27
2019-05-07T02:31:26.734Z,22.30
2019-05-07T02:33:54.377Z,22.35
2019-05-07T02:36:23.749Z,22.30
2019-05-07T02:39:12.847Z,22.28
2019-05-07T02:41:40.273Z,22.28
2019-05-07T02:44:07.701Z,22.27
2019-05-07T02:46:44.867Z,22.30
2019-05-07T02:49:37.721Z,22.28
2019-05-07T02:52:32.447Z,22.25
2019-05-07T02:55:18.522Z,22.28
2019-05-07T02:57:45.665Z,22.25
2019-05-07T03:00:14.157Z,22.27
2019-05-07T03:02:43.692Z,22.28
2019-05-07T03:05:13.777Z,22.23
2019-05-07T03:07:42.712Z,22.23
2019-05-07T03:10:13.641Z,22.23
2019-05-07T03:12:42.825Z,22.20
2019-05-07T03:15:09.533Z,22.23
2019-05-07T03:17:36.615Z,22.21
2019-05-07T03:20:07.503Z,22.22
2019-05-07T03:22:34.879Z,22.20
2019-05-07T03:25:16.679Z,22.19
2019-05-07T03:27:44.796Z,22.13
2019-05-07T03:30:26.562Z,22.13
2019-05-07T03:33:06.975Z,22.16
2019-05-07T03:35:45.890Z,22.20
2019-05-07T03:38:09.368Z,22.19
2019-05-07T03:40:36.927Z,22.20
2019-05-07T03:43:05.963Z,22.22
2019-05-07T03:45:49.190Z,22.19
2019-05-07T03:48:18.742Z,22.17
2019-05-07T03:51:48.679Z,22.27
2019-05-07T03:54:15.777Z,22.26
2019-05-07T03:56:43.738Z,22.26
2019-05-07T03:59:13.021Z,22.20
2019-05-07T04:01:42.886Z,22.21
2019-05-07T04:04:09.047Z,22.22
2019-05-07T04:06:36.429Z,22.24
2019-05-07T04:09:04.027Z,22.22
2019-05-07T04:11:33.699Z,22.23
2019-05-07T04:14:02.656Z,22.24
2019-05-07T04:16:29.283Z,22.24
2019-05-07T04:18:56.515Z,22.20
2019-05-07T04:21:23.635Z,22.30
2019-05-07T04:23:55.468Z,22.28
2019-05-07T04:26:33.598Z,22.25
2019-05-07T04:29:04.890Z,22.28
2019-05-07T04:31:34.695Z,22.27
2019-05-07T04:34:07.091Z,22.28
2019-05-07T04:36:44.038Z,22.27
2019-05-07T04:39:13.475Z,22.28
2019-05-07T04:41:43.216Z,22.29
2019-05-07T04:44:09.846Z,22.30
2019-05-07T04:46:36.980Z,22.29
2019-05-07T04:49:04.425Z,22.27
2019-05-07T04:51:39.480Z,22.28
2019-05-07T04:54:06.967Z,22.28
2019-05-07T04:56:34.824Z,22.33
2019-05-07T04:59:03.873Z,22.37
2019-05-07T05:01:37.259Z,22.37
2019-05-07T05:04:24.183Z,22.44
2019-05-07T05:06:37.187Z,22.41
2019-05-07T05:09:05.728Z,22.51
2019-05-07T05:11:33.938Z,22.49
2019-05-07T05:15:12.612Z,22.56
2019-05-07T05:17:50.548Z,22.53
2019-05-07T05:20:09.794Z,22.60
2019-05-07T05:22:47.416Z,22.54
2019-05-07T05:25:27.495Z,22.60
2019-05-07T05:27:54.800Z,22.59
2019-05-07T05:30:30.112Z,22.63
2019-05-07T05:33:01.358Z,22.63
2019-05-07T05:35:28.211Z,22.71
2019-05-07T05:37:56.015Z,22.76
2019-05-07T05:43:22.216Z,22.86
2019-05-07T05:45:50.084Z,22.84
2019-05-07T05:48:18.698Z,22.87
2019-05-07T05:53:09.043Z,23.21
2019-05-07T05:55:38.260Z,23.29
2019-05-07T05:58:20.429Z,23.43
2019-05-07T06:02:26.251Z,23.59
2019-05-07T06:05:22.125Z,23.61
2019-05-07T06:07:57.648Z,23.57
2019-05-07T06:10:33.000Z,23.55
2019-05-07T06:13:15.183Z,23.74
2019-05-07T06:15:54.483Z,23.85
2019-05-07T06:18:41.874Z,23.85
2019-05-07T06:21:23.955Z,23.85
2019-05-07T06:23:56.549Z,23.83
2019-05-07T06:26:24.772Z,23.86
2019-05-07T06:28:53.453Z,23.91
2019-05-07T06:31:22.587Z,23.93
2019-05-07T06:33:52.331Z,23.96
2019-05-07T06:36:21.978Z,24.03
2019-05-07T06:39:01.827Z,24.04
2019-05-07T06:41:47.642Z,24.08
2019-05-07T06:44:22.246Z,24.12
2019-05-07T06:46:52.788Z,24.12
2019-05-07T06:49:22.487Z,24.15
2019-05-07T06:51:52.827Z,24.15
2019-05-07T06:54:22.613Z,24.18
2019-05-07T06:56:52.379Z,24.19
2019-05-07T07:01:22.635Z,24.28
2019-05-07T07:04:02.579Z,24.22
2019-05-07T07:06:52.425Z,24.23
2019-05-07T07:09:27.200Z,24.23
2019-05-07T07:11:58.674Z,24.28
2019-05-07T07:14:27.715Z,24.31
2019-05-07T07:16:56.390Z,24.31
2019-05-07T07:19:24.456Z,24.42
2019-05-07T07:21:52.843Z,24.42
2019-05-07T07:24:22.161Z,24.47
2019-05-07T07:26:57.234Z,24.52
2019-05-07T07:29:27.416Z,24.52
2019-05-07T07:31:59.203Z,24.55
2019-05-07T07:34:30.261Z,24.55
2019-05-07T07:37:18.606Z,24.58
2019-05-07T07:39:46.529Z,24.63
2019-05-07T07:42:15.572Z,24.63
2019-05-07T07:44:44.368Z,24.68
2019-05-07T07:47:12.923Z,24.68
2019-05-07T07:49:42.113Z,24.68
2019-05-07T07:52:12.241Z,24.81
2019-05-07T07:54:42.655Z,24.87
2019-05-07T07:57:39.837Z,24.87
2019-05-07T08:00:29.947Z,24.87
2019-05-07T08:03:02.305Z,24.85
2019-05-07T08:05:32.610Z,24.82
2019-05-07T08:08:03.359Z,24.81
2019-05-07T08:10:33.369Z,24.78
2019-05-07T08:13:03.587Z,24.78
2019-05-07T08:15:33.197Z,24.81
2019-05-07T08:18:02.991Z,24.78
2019-05-07T08:20:32.861Z,24.79
2019-05-07T08:23:03.060Z,24.75
2019-05-07T08:25:48.779Z,24.80
2019-05-07T08:28:17.736Z,24.80
2019-05-07T08:30:53.787Z,24.82
2019-05-07T08:33:27.804Z,24.86
2019-05-07T08:36:17.285Z,24.86
2019-05-07T08:38:52.878Z,24.88
2019-05-07T08:41:23.300Z,24.85
2019-05-07T08:44:10.633Z,24.95
2019-05-07T08:46:51.970Z,24.95
2019-05-07T08:49:33.459Z,24.98
2019-05-07T08:52:03.075Z,24.96
2019-05-07T08:54:34.360Z,25.10
2019-05-07T08:57:04.754Z,25.10
2019-05-07T08:59:34.929Z,25.16
2019-05-07T09:02:05.362Z,25.24
2019-05-07T09:04:36.589Z,25.24
2019-05-07T09:07:06.690Z,25.23
2019-05-07T09:09:36.608Z,25.27
2019-05-07T09:12:05.851Z,25.39
2019-05-07T09:14:34.348Z,25.36
2019-05-07T09:17:04.724Z,25.36
2019-05-07T09:19:47.270Z,25.48
2019-05-07T09:22:05.744Z,25.52
2019-05-07T09:24:35.577Z,25.52
2019-05-07T09:27:12.023Z,25.39
2019-05-07T09:30:09.344Z,25.39
2019-05-07T09:32:52.722Z,25.31
2019-05-07T09:35:24.750Z,25.31
2019-05-07T09:37:53.757Z,25.26
2019-05-07T09:40:22.768Z,25.19
2019-05-07T09:42:52.619Z,25.19
2019-05-07T09:45:22.462Z,25.16
2019-05-07T09:47:52.675Z,25.13
2019-05-07T09:50:22.393Z,25.12
2019-05-07T09:52:52.682Z,25.12
2019-05-07T09:55:23.411Z,25.23
2019-05-07T09:57:53.061Z,25.29
2019-05-07T10:00:22.602Z,25.38
2019-05-07T10:02:52.856Z,25.48
2019-05-07T10:05:22.352Z,25.65
2019-05-07T10:07:52.629Z,25.69
2019-05-07T10:10:22.277Z,25.69
2019-05-07T10:13:12.672Z,25.77
2019-05-07T10:15:43.037Z,25.70
2019-05-07T10:18:18.141Z,25.67
2019-05-07T10:20:48.595Z,25.67
2019-05-07T10:23:22.950Z,25.72
2019-05-07T10:25:52.818Z,25.75
2019-05-07T10:28:22.858Z,25.75
2019-05-07T10:30:53.830Z,25.91
2019-05-07T10:33:22.974Z,25.99
2019-05-07T10:35:53.741Z,26.20
2019-05-07T10:38:23.857Z,26.32
2019-05-07T10:40:52.752Z,26.35
2019-05-07T10:43:22.461Z,26.32
2019-05-07T10:46:12.791Z,26.26
2019-05-07T10:49:01.973Z,26.12
2019-05-07T10:51:32.221Z,26.12
2019-05-07T10:54:02.256Z,26.07
2019-05-07T10:56:32.651Z,26.00
2019-05-07T10:59:02.903Z,25.87
2019-05-07T11:01:38.325Z,25.87
2019-05-07T11:04:08.809Z,25.88
2019-05-07T11:06:36.681Z,25.91
2019-05-07T11:09:06.810Z,25.94
2019-05-07T11:11:36.768Z,25.95
2019-05-07T11:14:05.825Z,25.94
2019-05-07T11:16:43.057Z,26.00
2019-05-07T11:19:12.821Z,26.05
2019-05-07T11:21:41.879Z,26.14
2019-05-07T11:24:12.086Z,26.35
2019-05-07T11:26:42.807Z,26.35
2019-05-07T11:29:12.964Z,26.36
2019-05-07T11:31:42.451Z,26.33
2019-05-07T11:34:13.807Z,26.33
2019-05-07T11:36:43.348Z,26.60
2019-05-07T11:39:12.303Z,26.48
2019-05-07T11:41:58.811Z,26.48
2019-05-07T11:44:29.034Z,26.48
2019-05-07T11:47:18.461Z,26.42
2019-05-07T11:50:05.957Z,26.30
2019-05-07T11:52:38.042Z,26.30
2019-05-07T11:55:07.567Z,26.36
2019-05-07T11:57:37.645Z,26.32
2019-05-07T12:00:09.998Z,26.18
2019-05-07T12:02:39.045Z,26.10
2019-05-07T12:05:08.360Z,25.98
2019-05-07T12:07:38.338Z,26.04
2019-05-07T12:10:07.809Z,26.04
2019-05-07T12:12:40.103Z,26.15
2019-05-07T12:15:09.438Z,26.25
2019-05-07T12:17:38.673Z,26.25
2019-05-07T12:20:07.678Z,26.26
2019-05-07T12:22:47.792Z,26.31
2019-05-07T12:25:16.852Z,26.18
2019-05-07T12:27:45.766Z,26.34
2019-05-07T12:30:18.399Z,26.24
2019-05-07T12:33:15.700Z,26.24
2019-05-07T12:35:45.781Z,26.22
2019-05-07T12:38:14.483Z,26.40
2019-05-07T12:40:43.327Z,26.40
2019-05-07T12:43:11.593Z,26.79
2019-05-07T12:45:42.109Z,26.79
2019-05-07T12:48:12.141Z,26.77
2019-05-07T12:50:43.260Z,26.67
2019-05-07T12:53:23.607Z,26.45
2019-05-07T12:55:55.778Z,26.43
2019-05-07T12:58:23.616Z,26.43
2019-05-07T13:01:13.915Z,26.43
2019-05-07T13:04:02.651Z,26.45
2019-05-07T13:06:32.590Z,26.45
2019-05-07T13:09:01.756Z,26.40
2019-05-07T13:11:32.469Z,26.43
2019-05-07T13:14:02.117Z,26.47
2019-05-07T13:16:32.401Z,26.51
2019-05-07T13:19:01.966Z,26.47
2019-05-07T13:21:31.970Z,26.34
2019-05-07T13:24:02.883Z,26.30
2019-05-07T13:26:32.406Z,26.18
2019-05-07T13:29:02.509Z,26.18
2019-05-07T13:31:32.691Z,25.87
2019-05-07T13:34:02.891Z,26.09
2019-05-07T13:36:32.412Z,26.09
2019-05-07T13:39:32.794Z,26.12
2019-05-07T13:42:26.865Z,26.06
2019-05-07T13:45:13.813Z,26.04
2019-05-07T13:47:43.076Z,26.08
2019-05-07T13:50:12.049Z,26.13
2019-05-07T13:52:43.356Z,26.08
2019-05-07T13:55:12.836Z,26.02
2019-05-07T13:57:41.759Z,26.06
2019-05-07T14:00:14.576Z,25.93
2019-05-07T14:02:43.039Z,25.93
2019-05-07T14:05:13.963Z,25.96
2019-05-07T14:07:42.980Z,25.96
2019-05-07T14:10:12.650Z,25.91
2019-05-07T14:12:43.604Z,25.93
2019-05-07T14:15:13.821Z,26.04
2019-05-07T14:17:41.762Z,25.98
2019-05-07T14:20:12.986Z,25.98
2019-05-07T14:22:42.842Z,26.16
2019-05-07T14:25:13.319Z,26.16
2019-05-07T14:27:42.814Z,26.16
2019-05-07T14:30:13.161Z,26.56
2019-05-07T14:32:52.574Z,26.69
2019-05-07T14:35:28.914Z,26.59
2019-05-07T14:38:02.740Z,26.61
2019-05-07T14:40:33.333Z,26.61
2019-05-07T14:43:08.992Z,26.49
2019-05-07T14:45:39.049Z,26.45
2019-05-07T14:49:34.804Z,26.50
2019-05-07T14:52:03.785Z,26.65
2019-05-07T14:54:33.675Z,26.61
2019-05-07T14:57:03.739Z,26.42
2019-05-07T14:59:33.564Z,26.19
2019-05-07T15:02:02.923Z,26.19
2019-05-07T15:04:31.703Z,26.18
2019-05-07T15:07:02.515Z,26.08
2019-05-07T15:09:31.811Z,26.17
2019-05-07T15:12:02.239Z,26.17
2019-05-07T15:14:31.945Z,26.12
2019-05-07T15:17:09.017Z,26.13
2019-05-07T15:19:38.419Z,26.01
2019-05-07T15:22:26.749Z,26.01
2019-05-07T15:24:56.344Z,26.14
2019-05-07T15:27:26.572Z,26.10
2019-05-07T15:29:57.495Z,26.03
2019-05-07T15:32:27.024Z,26.03
2019-05-07T15:34:56.010Z,26.02
2019-05-07T15:37:24.489Z,26.03
2019-05-07T15:42:04.009Z,26.07
2019-05-07T15:44:34.987Z,26.45
2019-05-07T15:47:11.716Z,26.45
2019-05-07T15:49:41.876Z,26.59
2019-05-07T15:52:43.049Z,26.67
2019-05-07T15:55:13.350Z,26.64
2019-05-07T15:57:43.685Z,26.64
2019-05-07T16:00:15.888Z,26.55
2019-05-07T16:02:47.960Z,26.52
2019-05-07T16:05:18.373Z,26.04
2019-05-07T16:07:49.369Z,26.04
2019-05-07T16:10:20.259Z,25.97
2019-05-07T16:12:53.106Z,25.97
2019-05-07T16:15:23.791Z,25.81
2019-05-07T16:18:02.805Z,25.81
2019-05-07T16:20:33.339Z,25.80
2019-05-07T16:23:14.418Z,25.80
2019-05-07T16:25:37.016Z,25.77
2019-05-07T16:28:07.340Z,25.78
2019-05-07T16:30:37.729Z,25.78
2019-05-07T16:33:07.759Z,25.80
2019-05-07T16:35:37.737Z,25.81
2019-05-07T16:38:07.610Z,25.79
2019-05-07T16:40:38.588Z,25.81
2019-05-07T16:43:09.215Z,25.81
2019-05-07T16:45:39.366Z,25.83
2019-05-07T16:48:09.004Z,25.85
2019-05-07T16:50:40.974Z,25.81
2019-05-07T16:53:13.384Z,25.68
2019-05-07T16:55:44.753Z,25.68
2019-05-07T16:58:23.430Z,25.76
2019-05-07T17:01:00.129Z,25.74
2019-05-07T17:03:36.807Z,25.71
2019-05-07T17:06:06.725Z,25.68
2019-05-07T17:08:44.969Z,25.59
2019-05-07T17:11:13.676Z,25.59
2019-05-07T17:13:42.885Z,25.57
2019-05-07T17:16:12.377Z,25.59
2019-05-07T17:19:08.208Z,25.62
2019-05-07T17:21:37.994Z,25.54
2019-05-07T17:24:07.859Z,25.64
2019-05-07T17:26:38.723Z,25.70
2019-05-07T17:29:08.333Z,25.70
2019-05-07T17:31:37.084Z,25.77
2019-05-07T17:34:08.301Z,25.71
2019-05-07T17:36:37.858Z,25.71
2019-05-07T17:39:07.745Z,25.64
2019-05-07T17:41:37.429Z,25.64
2019-05-07T17:44:07.359Z,25.58
2019-05-07T17:46:38.763Z,25.54
2019-05-07T17:49:09.356Z,25.39
2019-05-07T17:51:46.868Z,25.39
2019-05-07T17:54:16.821Z,25.37
2019-05-07T17:56:46.835Z,25.37
2019-05-07T17:59:18.821Z,25.19
2019-05-07T18:02:11.355Z,25.19
2019-05-07T18:04:50.779Z,25.19
2019-05-07T18:07:18.067Z,25.22
2019-05-07T18:09:49.787Z,25.13
2019-05-07T18:12:19.850Z,25.13
2019-05-07T18:14:52.807Z,25.13
2019-05-07T18:17:52.825Z,24.99
2019-05-07T18:20:22.773Z,25.04
2019-05-07T18:22:53.397Z,25.04
2019-05-07T18:25:22.873Z,25.00
2019-05-07T18:27:52.815Z,25.00
2019-05-07T18:30:22.706Z,24.82
2019-05-07T18:32:58.072Z,25.01
2019-05-07T18:35:26.773Z,25.01
2019-05-07T18:37:54.368Z,25.11
2019-05-07T18:40:24.502Z,25.11
2019-05-07T18:42:54.765Z,25.00
2019-05-07T18:45:25.676Z,25.09
2019-05-07T18:47:55.480Z,25.09
2019-05-07T18:50:27.120Z,25.00
2019-05-07T18:55:36.874Z,24.97
2019-05-07T18:58:06.856Z,24.97
2019-05-07T19:00:38.624Z,25.13
2019-05-07T19:03:07.014Z,25.15
2019-05-07T19:05:35.755Z,25.18
2019-05-07T19:08:08.625Z,25.19
2019-05-07T19:10:37.786Z,25.14
2019-05-07T19:13:07.697Z,25.14
2019-05-07T19:15:39.278Z,25.08
2019-05-07T19:18:11.878Z,25.22
2019-05-07T19:20:42.961Z,25.21
2019-05-07T19:25:58.082Z,25.29
2019-05-07T19:28:28.794Z,25.31
2019-05-07T19:30:57.869Z,25.31
2019-05-07T19:33:27.886Z,25.21
2019-05-07T19:35:58.851Z,25.27
2019-05-07T19:38:29.447Z,25.27
2019-05-07T19:40:59.096Z,25.27
2019-05-07T19:43:29.732Z,25.37
2019-05-07T19:45:58.940Z,25.48
2019-05-07T19:48:28.118Z,25.37
2019-05-07T19:50:57.636Z,25.40
2019-05-07T19:53:26.364Z,25.40
2019-05-07T19:56:04.983Z,25.53
2019-05-07T19:58:35.634Z,25.43
2019-05-07T20:01:06.861Z,25.43
2019-05-07T20:03:40.563Z,25.53
2019-05-07T20:06:09.642Z,25.54
2019-05-07T20:08:40.630Z,25.52
2019-05-07T20:11:22.411Z,25.51
2019-05-07T20:13:52.478Z,25.51
2019-05-07T20:16:23.327Z,25.51
2019-05-07T20:18:53.955Z,25.54
2019-05-07T20:21:23.735Z,25.50
2019-05-07T20:23:53.767Z,25.50
2019-05-07T20:26:23.767Z,25.62
2019-05-07T20:28:54.800Z,25.42
2019-05-07T20:31:24.599Z,25.42
2019-05-07T20:33:54.836Z,25.45
2019-05-07T20:36:24.844Z,25.52
2019-05-07T20:39:23.118Z,25.52
2019-05-07T20:41:52.755Z,25.52
2019-05-07T20:45:57.740Z,25.57
2019-05-07T20:48:28.538Z,25.53
2019-05-07T20:50:58.741Z,25.55
2019-05-07T20:53:47.831Z,25.55
2019-05-07T20:56:22.540Z,25.61
2019-05-07T20:58:53.534Z,25.37
2019-05-07T21:01:24.645Z,25.39
2019-05-07T21:03:54.882Z,25.39
2019-05-07T21:06:24.352Z,25.29
2019-05-07T21:08:54.405Z,25.33
2019-05-07T21:11:24.093Z,25.33
2019-05-07T21:13:55.952Z,25.35
2019-05-07T21:16:26.772Z,25.24
2019-05-07T21:18:57.092Z,25.31
2019-05-07T21:21:28.677Z,25.23
2019-05-07T21:24:01.527Z,25.33
2019-05-07T21:26:32.683Z,25.33
2019-05-07T21:29:03.204Z,25.31
2019-05-07T21:31:32.864Z,25.31
2019-05-07T21:36:38.822Z,25.34
2019-05-07T21:39:13.110Z,25.30
2019-05-07T21:41:42.759Z,25.30
2019-05-07T21:44:16.966Z,25.27
2019-05-07T21:46:48.882Z,25.30
2019-05-07T21:50:39.284Z,25.37
2019-05-07T21:53:19.382Z,25.32
2019-05-07T21:56:01.744Z,25.31
2019-05-07T21:58:39.883Z,25.27
2019-05-07T22:01:16.813Z,25.17
2019-05-07T22:03:48.848Z,25.11
2019-05-07T22:06:18.890Z,25.07
2019-05-07T22:08:48.863Z,25.03
2019-05-07T22:11:18.853Z,24.98
2019-05-07T22:13:48.802Z,24.98
2019-05-07T22:16:19.509Z,24.94
2019-05-07T22:18:52.042Z,24.90
2019-05-07T22:21:23.840Z,24.85
2019-05-07T22:23:55.051Z,24.88
2019-05-07T22:26:26.580Z,24.66
2019-05-07T22:28:57.422Z,24.66
2019-05-07T22:31:56.845Z,24.74
2019-05-07T22:34:58.919Z,24.72
2019-05-07T22:37:32.392Z,24.55
2019-05-07T22:40:03.016Z,24.55
2019-05-07T22:43:15.828Z,24.66
2019-05-07T22:45:46.318Z,24.60
2019-05-07T22:48:17.021Z,24.60
2019-05-07T22:53:12.570Z,24.60
2019-05-07T22:55:42.372Z,24.56
2019-05-07T22:59:01.367Z,24.58
2019-05-07T23:01:31.980Z,24.52
2019-05-07T23:04:02.724Z,24.49
2019-05-07T23:07:12.818Z,24.50
2019-05-07T23:09:44.908Z,24.50
2019-05-07T23:12:12.907Z,24.48
2019-05-07T23:14:41.284Z,24.45
2019-05-07T23:17:09.790Z,24.44
2019-05-07T23:22:05.741Z,24.39
2019-05-07T23:24:34.534Z,24.39
2019-05-07T23:27:02.442Z,24.41
2019-05-07T23:29:33.035Z,24.37
2019-05-07T23:32:02.281Z,24.37
2019-05-07T23:34:32.609Z,24.35
2019-05-07T23:37:02.405Z,24.22
2019-05-07T23:39:34.384Z,24.31
2019-05-07T23:42:16.797Z,24.31
2019-05-07T23:44:47.044Z,24.31
2019-05-07T23:47:16.461Z,24.30
2019-05-07T23:49:47.372Z,24.18
2019-05-07T23:52:15.933Z,24.18
2019-05-07T23:54:44.897Z,24.26
2019-05-07T23:57:15.393Z,24.23
2019-05-07T23:59:44.988Z,24.23
